sensor_id;sensor_type;location;lat;lon;timestamp;temperature;humidity
7700;DHT22;3892;47.794;19.126;2023-08-12T00:02:18;23.70;43.80
7700;DHT22;3892;47.794;19.126;2023-08-12T00:04:46;23.70;44.10
7700;DHT22;3892;47.794;19.126;2023-08-12T00:07:15;23.60;44.10
7700;DHT22;3892;47.794;19.126;2023-08-12T00:09:43;23.60;44.20
7700;DHT22;3892;47.794;19.126;2023-08-12T00:12:11;23.60;44.40
7700;DHT22;3892;47.794;19.126;2023-08-12T00:14:39;23.50;44.40
7700;DHT22;3892;47.794;19.126;2023-08-12T00:17:07;23.50;44.20
7700;DHT22;3892;47.794;19.126;2023-08-12T00:19:37;23.50;44.30
7700;DHT22;3892;47.794;19.126;2023-08-12T00:22:05;23.50;44.30
7700;DHT22;3892;47.794;19.126;2023-08-12T00:24:33;23.50;44.10
7700;DHT22;3892;47.794;19.126;2023-08-12T00:27:01;23.50;44.20
7700;DHT22;3892;47.794;19.126;2023-08-12T00:29:29;23.50;44.30
7700;DHT22;3892;47.794;19.126;2023-08-12T00:31:57;23.50;44.40
7700;DHT22;3892;47.794;19.126;2023-08-12T00:34:25;23.50;44.70
7700;DHT22;3892;47.794;19.126;2023-08-12T00:36:54;23.40;45.30
7700;DHT22;3892;47.794;19.126;2023-08-12T00:39:22;23.40;44.30
7700;DHT22;3892;47.794;19.126;2023-08-12T00:41:51;23.40;44.40
7700;DHT22;3892;47.794;19.126;2023-08-12T00:44:19;23.40;44.50
7700;DHT22;3892;47.794;19.126;2023-08-12T00:46:48;23.40;44.50
7700;DHT22;3892;47.794;19.126;2023-08-12T00:49:16;23.40;44.50
7700;DHT22;3892;47.794;19.126;2023-08-12T00:51:45;23.40;44.40
7700;DHT22;3892;47.794;19.126;2023-08-12T00:54:16;23.40;44.40
7700;DHT22;3892;47.794;19.126;2023-08-12T00:56:45;23.30;44.30
7700;DHT22;3892;47.794;19.126;2023-08-12T00:59:15;23.30;44.40
7700;DHT22;3892;47.794;19.126;2023-08-12T01:01:44;23.30;44.50
7700;DHT22;3892;47.794;19.126;2023-08-12T01:04:13;23.30;44.60
7700;DHT22;3892;47.794;19.126;2023-08-12T01:06:41;23.30;44.50
7700;DHT22;3892;47.794;19.126;2023-08-12T01:09:09;23.30;44.40
7700;DHT22;3892;47.794;19.126;2023-08-12T01:11:42;23.20;44.30
7700;DHT22;3892;47.794;19.126;2023-08-12T01:14:16;23.20;44.10
7700;DHT22;3892;47.794;19.126;2023-08-12T01:16:47;23.20;44.00
7700;DHT22;3892;47.794;19.126;2023-08-12T01:19:22;23.20;44.00
7700;DHT22;3892;47.794;19.126;2023-08-12T01:21:55;23.20;44.00
7700;DHT22;3892;47.794;19.126;2023-08-12T01:24:34;23.20;43.90
7700;DHT22;3892;47.794;19.126;2023-08-12T01:27:02;23.20;43.90
7700;DHT22;3892;47.794;19.126;2023-08-12T01:29:31;23.10;43.60
7700;DHT22;3892;47.794;19.126;2023-08-12T01:32:08;23.10;43.80
7700;DHT22;3892;47.794;19.126;2023-08-12T01:34:43;23.10;43.90
7700;DHT22;3892;47.794;19.126;2023-08-12T01:37:17;23.10;43.90
7700;DHT22;3892;47.794;19.126;2023-08-12T01:39:48;23.00;43.80
7700;DHT22;3892;47.794;19.126;2023-08-12T01:42:17;23.00;43.60
7700;DHT22;3892;47.794;19.126;2023-08-12T01:44:46;23.00;43.70
7700;DHT22;3892;47.794;19.126;2023-08-12T01:47:15;23.00;43.80
7700;DHT22;3892;47.794;19.126;2023-08-12T01:49:44;23.00;43.80
7700;DHT22;3892;47.794;19.126;2023-08-12T01:52:12;23.00;43.70
7700;DHT22;3892;47.794;19.126;2023-08-12T01:54:40;22.90;43.50
7700;DHT22;3892;47.794;19.126;2023-08-12T01:57:09;22.90;43.40
7700;DHT22;3892;47.794;19.126;2023-08-12T01:59:37;22.90;43.50
7700;DHT22;3892;47.794;19.126;2023-08-12T02:02:06;22.90;43.50
7700;DHT22;3892;47.794;19.126;2023-08-12T02:04:34;22.90;43.60
7700;DHT22;3892;47.794;19.126;2023-08-12T02:07:03;22.90;43.50
7700;DHT22;3892;47.794;19.126;2023-08-12T02:09:31;22.80;43.60
7700;DHT22;3892;47.794;19.126;2023-08-12T02:11:59;22.80;43.70
7700;DHT22;3892;47.794;19.126;2023-08-12T02:14:29;22.80;43.70
7700;DHT22;3892;47.794;19.126;2023-08-12T02:16:57;22.70;43.70
7700;DHT22;3892;47.794;19.126;2023-08-12T02:19:25;22.80;43.80
7700;DHT22;3892;47.794;19.126;2023-08-12T02:21:53;22.70;43.60
7700;DHT22;3892;47.794;19.126;2023-08-12T02:24:21;22.70;43.60
7700;DHT22;3892;47.794;19.126;2023-08-12T02:26:49;22.70;44.20
7700;DHT22;3892;47.794;19.126;2023-08-12T02:29:17;22.70;43.70
7700;DHT22;3892;47.794;19.126;2023-08-12T02:31:47;22.70;43.70
7700;DHT22;3892;47.794;19.126;2023-08-12T02:34:15;22.70;43.70
7700;DHT22;3892;47.794;19.126;2023-08-12T02:36:43;22.60;43.50
7700;DHT22;3892;47.794;19.126;2023-08-12T02:39:11;22.60;43.70
7700;DHT22;3892;47.794;19.126;2023-08-12T02:41:40;22.60;43.70
7700;DHT22;3892;47.794;19.126;2023-08-12T02:44:08;22.60;43.80
7700;DHT22;3892;47.794;19.126;2023-08-12T02:46:36;22.60;43.80
7700;DHT22;3892;47.794;19.126;2023-08-12T02:49:05;22.60;43.80
7700;DHT22;3892;47.794;19.126;2023-08-12T02:51:33;22.60;44.00
7700;DHT22;3892;47.794;19.126;2023-08-12T02:54:03;22.60;44.00
7700;DHT22;3892;47.794;19.126;2023-08-12T02:56:31;22.50;44.00
7700;DHT22;3892;47.794;19.126;2023-08-12T02:58:59;22.50;44.00
7700;DHT22;3892;47.794;19.126;2023-08-12T03:01:27;22.50;44.00
7700;DHT22;3892;47.794;19.126;2023-08-12T03:03:56;22.50;44.10
7700;DHT22;3892;47.794;19.126;2023-08-12T03:06:26;22.50;44.20
7700;DHT22;3892;47.794;19.126;2023-08-12T03:08:54;22.50;44.40
7700;DHT22;3892;47.794;19.126;2023-08-12T03:11:22;22.40;44.30
7700;DHT22;3892;47.794;19.126;2023-08-12T03:13:50;22.30;44.30
7700;DHT22;3892;47.794;19.126;2023-08-12T03:16:18;22.40;44.40
7700;DHT22;3892;47.794;19.126;2023-08-12T03:18:46;22.40;44.50
7700;DHT22;3892;47.794;19.126;2023-08-12T03:21:14;22.40;44.60
7700;DHT22;3892;47.794;19.126;2023-08-12T03:23:44;22.40;44.60
7700;DHT22;3892;47.794;19.126;2023-08-12T03:26:12;22.40;44.60
7700;DHT22;3892;47.794;19.126;2023-08-12T03:28:41;22.40;44.60
7700;DHT22;3892;47.794;19.126;2023-08-12T03:31:09;22.40;44.70
7700;DHT22;3892;47.794;19.126;2023-08-12T03:33:37;22.30;44.60
7700;DHT22;3892;47.794;19.126;2023-08-12T03:36:05;22.30;44.60
7700;DHT22;3892;47.794;19.126;2023-08-12T03:38:33;22.30;44.70
7700;DHT22;3892;47.794;19.126;2023-08-12T03:41:04;22.30;44.50
7700;DHT22;3892;47.794;19.126;2023-08-12T03:43:32;22.30;44.50
7700;DHT22;3892;47.794;19.126;2023-08-12T03:46:01;22.30;44.50
7700;DHT22;3892;47.794;19.126;2023-08-12T03:48:29;22.40;44.70
7700;DHT22;3892;47.794;19.126;2023-08-12T03:50:57;22.40;44.60
7700;DHT22;3892;47.794;19.126;2023-08-12T03:53:25;22.40;44.50
7700;DHT22;3892;47.794;19.126;2023-08-12T03:55:54;22.40;44.50
7700;DHT22;3892;47.794;19.126;2023-08-12T03:58:23;22.30;44.30
7700;DHT22;3892;47.794;19.126;2023-08-12T04:00:51;22.40;44.30
7700;DHT22;3892;47.794;19.126;2023-08-12T04:03:19;22.30;44.20
7700;DHT22;3892;47.794;19.126;2023-08-12T04:05:48;22.30;44.30
7700;DHT22;3892;47.794;19.126;2023-08-12T04:08:19;22.30;44.40
7700;DHT22;3892;47.794;19.126;2023-08-12T04:10:47;22.40;44.60
7700;DHT22;3892;47.794;19.126;2023-08-12T04:13:15;22.40;44.70
7700;DHT22;3892;47.794;19.126;2023-08-12T04:15:48;22.40;44.50
7700;DHT22;3892;47.794;19.126;2023-08-12T04:18:17;22.30;44.50
7700;DHT22;3892;47.794;19.126;2023-08-12T04:20:45;22.40;44.70
7700;DHT22;3892;47.794;19.126;2023-08-12T04:23:13;22.40;44.70
7700;DHT22;3892;47.794;19.126;2023-08-12T04:25:43;22.40;44.70
7700;DHT22;3892;47.794;19.126;2023-08-12T04:28:12;22.50;44.80
7700;DHT22;3892;47.794;19.126;2023-08-12T04:30:43;22.50;45.10
7700;DHT22;3892;47.794;19.126;2023-08-12T04:33:12;22.50;45.20
7700;DHT22;3892;47.794;19.126;2023-08-12T04:35:41;22.50;45.30
7700;DHT22;3892;47.794;19.126;2023-08-12T04:38:09;22.50;45.30
7700;DHT22;3892;47.794;19.126;2023-08-12T04:40:39;22.50;45.30
7700;DHT22;3892;47.794;19.126;2023-08-12T04:43:07;22.60;45.40
7700;DHT22;3892;47.794;19.126;2023-08-12T04:45:36;22.60;45.40
7700;DHT22;3892;47.794;19.126;2023-08-12T04:48:06;22.60;45.20
7700;DHT22;3892;47.794;19.126;2023-08-12T04:50:37;22.60;45.10
7700;DHT22;3892;47.794;19.126;2023-08-12T04:53:05;22.70;45.00
7700;DHT22;3892;47.794;19.126;2023-08-12T04:55:34;22.70;45.00
7700;DHT22;3892;47.794;19.126;2023-08-12T04:58:03;22.70;45.00
7700;DHT22;3892;47.794;19.126;2023-08-12T05:00:31;22.70;44.90
7700;DHT22;3892;47.794;19.126;2023-08-12T05:02:59;22.80;45.00
7700;DHT22;3892;47.794;19.126;2023-08-12T05:05:27;22.80;45.00
7700;DHT22;3892;47.794;19.126;2023-08-12T05:07:56;22.90;45.20
7700;DHT22;3892;47.794;19.126;2023-08-12T05:10:25;22.90;45.20
7700;DHT22;3892;47.794;19.126;2023-08-12T05:12:53;22.90;45.10
7700;DHT22;3892;47.794;19.126;2023-08-12T05:15:21;22.90;45.10
7700;DHT22;3892;47.794;19.126;2023-08-12T05:17:49;23.00;45.20
7700;DHT22;3892;47.794;19.126;2023-08-12T05:20:17;23.10;45.20
7700;DHT22;3892;47.794;19.126;2023-08-12T05:22:46;23.10;45.10
7700;DHT22;3892;47.794;19.126;2023-08-12T05:25:15;23.10;45.20
7700;DHT22;3892;47.794;19.126;2023-08-12T05:27:44;23.10;45.30
7700;DHT22;3892;47.794;19.126;2023-08-12T05:30:12;23.10;45.30
7700;DHT22;3892;47.794;19.126;2023-08-12T05:32:42;23.10;45.20
7700;DHT22;3892;47.794;19.126;2023-08-12T05:35:11;23.20;45.10
7700;DHT22;3892;47.794;19.126;2023-08-12T05:37:39;23.20;45.10
7700;DHT22;3892;47.794;19.126;2023-08-12T05:40:08;23.20;45.20
7700;DHT22;3892;47.794;19.126;2023-08-12T05:42:38;23.20;45.30
7700;DHT22;3892;47.794;19.126;2023-08-12T05:45:07;23.20;45.30
7700;DHT22;3892;47.794;19.126;2023-08-12T05:47:35;23.30;45.30
7700;DHT22;3892;47.794;19.126;2023-08-12T05:50:04;23.30;45.10
7700;DHT22;3892;47.794;19.126;2023-08-12T05:52:33;23.30;45.00
7700;DHT22;3892;47.794;19.126;2023-08-12T05:55:01;23.40;45.00
7700;DHT22;3892;47.794;19.126;2023-08-12T05:57:29;23.40;45.10
7700;DHT22;3892;47.794;19.126;2023-08-12T05:59:59;23.40;45.20
7700;DHT22;3892;47.794;19.126;2023-08-12T06:02:27;23.40;45.20
7700;DHT22;3892;47.794;19.126;2023-08-12T06:04:55;23.40;45.30
7700;DHT22;3892;47.794;19.126;2023-08-12T06:07:23;23.50;45.40
7700;DHT22;3892;47.794;19.126;2023-08-12T06:09:51;23.50;45.40
7700;DHT22;3892;47.794;19.126;2023-08-12T06:12:20;23.50;45.80
7700;DHT22;3892;47.794;19.126;2023-08-12T06:14:48;23.60;46.10
7700;DHT22;3892;47.794;19.126;2023-08-12T06:17:17;23.60;46.10
7700;DHT22;3892;47.794;19.126;2023-08-12T06:19:45;23.70;46.00
7700;DHT22;3892;47.794;19.126;2023-08-12T06:22:13;23.70;46.00
7700;DHT22;3892;47.794;19.126;2023-08-12T06:24:41;23.80;45.90
7700;DHT22;3892;47.794;19.126;2023-08-12T06:27:10;23.90;46.10
7700;DHT22;3892;47.794;19.126;2023-08-12T06:29:38;23.90;45.70
7700;DHT22;3892;47.794;19.126;2023-08-12T06:32:06;23.90;45.50
7700;DHT22;3892;47.794;19.126;2023-08-12T06:34:35;24.00;45.50
7700;DHT22;3892;47.794;19.126;2023-08-12T06:37:03;24.00;45.20
7700;DHT22;3892;47.794;19.126;2023-08-12T06:39:31;24.10;45.80
7700;DHT22;3892;47.794;19.126;2023-08-12T06:41:59;24.10;45.40
7700;DHT22;3892;47.794;19.126;2023-08-12T06:44:27;24.20;45.30
7700;DHT22;3892;47.794;19.126;2023-08-12T06:46:56;24.20;45.70
7700;DHT22;3892;47.794;19.126;2023-08-12T06:49:24;24.20;45.10
7700;DHT22;3892;47.794;19.126;2023-08-12T06:51:53;24.30;45.00
7700;DHT22;3892;47.794;19.126;2023-08-12T06:54:21;24.40;44.80
7700;DHT22;3892;47.794;19.126;2023-08-12T06:56:51;24.50;44.50
7700;DHT22;3892;47.794;19.126;2023-08-12T06:59:19;24.50;44.50
7700;DHT22;3892;47.794;19.126;2023-08-12T07:01:47;24.50;44.50
7700;DHT22;3892;47.794;19.126;2023-08-12T07:04:15;24.60;44.50
7700;DHT22;3892;47.794;19.126;2023-08-12T07:06:43;24.60;44.50
7700;DHT22;3892;47.794;19.126;2023-08-12T07:09:13;24.70;44.70
7700;DHT22;3892;47.794;19.126;2023-08-12T07:11:41;24.70;44.30
7700;DHT22;3892;47.794;19.126;2023-08-12T07:14:09;24.80;44.40
7700;DHT22;3892;47.794;19.126;2023-08-12T07:16:37;24.90;44.50
7700;DHT22;3892;47.794;19.126;2023-08-12T07:19:05;25.00;44.40
7700;DHT22;3892;47.794;19.126;2023-08-12T07:21:33;25.00;44.30
7700;DHT22;3892;47.794;19.126;2023-08-12T07:24:01;25.00;44.20
7700;DHT22;3892;47.794;19.126;2023-08-12T07:26:31;25.10;44.20
7700;DHT22;3892;47.794;19.126;2023-08-12T07:28:59;25.20;44.00
7700;DHT22;3892;47.794;19.126;2023-08-12T07:31:27;25.20;44.00
7700;DHT22;3892;47.794;19.126;2023-08-12T07:33:55;25.30;43.90
7700;DHT22;3892;47.794;19.126;2023-08-12T07:36:23;25.30;43.80
7700;DHT22;3892;47.794;19.126;2023-08-12T07:38:51;25.30;43.90
7700;DHT22;3892;47.794;19.126;2023-08-12T07:41:19;25.40;43.90
7700;DHT22;3892;47.794;19.126;2023-08-12T07:43:49;25.40;43.70
7700;DHT22;3892;47.794;19.126;2023-08-12T07:46:17;25.40;44.20
7700;DHT22;3892;47.794;19.126;2023-08-12T07:48:45;25.50;43.70
7700;DHT22;3892;47.794;19.126;2023-08-12T07:51:13;25.50;43.90
7700;DHT22;3892;47.794;19.126;2023-08-12T07:53:41;25.50;43.90
7700;DHT22;3892;47.794;19.126;2023-08-12T07:56:09;25.50;43.50
7700;DHT22;3892;47.794;19.126;2023-08-12T07:58:37;25.50;43.30
7700;DHT22;3892;47.794;19.126;2023-08-12T08:01:07;25.60;43.60
7700;DHT22;3892;47.794;19.126;2023-08-12T08:03:36;25.60;43.60
7700;DHT22;3892;47.794;19.126;2023-08-12T08:06:04;25.60;43.20
7700;DHT22;3892;47.794;19.126;2023-08-12T08:08:32;25.70;43.00
7700;DHT22;3892;47.794;19.126;2023-08-12T08:11:00;25.80;43.30
7700;DHT22;3892;47.794;19.126;2023-08-12T08:13:28;25.80;43.20
7700;DHT22;3892;47.794;19.126;2023-08-12T08:15:56;25.90;43.30
7700;DHT22;3892;47.794;19.126;2023-08-12T08:18:25;25.90;43.10
7700;DHT22;3892;47.794;19.126;2023-08-12T08:20:54;25.90;43.00
7700;DHT22;3892;47.794;19.126;2023-08-12T08:23:23;25.90;42.90
7700;DHT22;3892;47.794;19.126;2023-08-12T08:25:51;25.90;42.80
7700;DHT22;3892;47.794;19.126;2023-08-12T08:28:19;25.90;42.20
7700;DHT22;3892;47.794;19.126;2023-08-12T08:30:47;26.00;42.70
7700;DHT22;3892;47.794;19.126;2023-08-12T08:33:15;26.00;41.90
7700;DHT22;3892;47.794;19.126;2023-08-12T08:35:44;26.10;42.80
7700;DHT22;3892;47.794;19.126;2023-08-12T08:38:12;26.20;42.40
7700;DHT22;3892;47.794;19.126;2023-08-12T08:40:41;26.20;41.70
7700;DHT22;3892;47.794;19.126;2023-08-12T08:43:09;26.30;42.30
7700;DHT22;3892;47.794;19.126;2023-08-12T08:45:37;26.30;41.40
7700;DHT22;3892;47.794;19.126;2023-08-12T08:48:07;26.40;40.90
7700;DHT22;3892;47.794;19.126;2023-08-12T08:50:36;26.50;41.30
7700;DHT22;3892;47.794;19.126;2023-08-12T08:53:06;26.50;41.30
7700;DHT22;3892;47.794;19.126;2023-08-12T08:55:35;26.60;41.60
7700;DHT22;3892;47.794;19.126;2023-08-12T08:58:03;26.60;41.40
7700;DHT22;3892;47.794;19.126;2023-08-12T09:00:32;26.70;42.00
7700;DHT22;3892;47.794;19.126;2023-08-12T09:03:01;26.80;43.00
7700;DHT22;3892;47.794;19.126;2023-08-12T09:05:31;26.90;41.90
7700;DHT22;3892;47.794;19.126;2023-08-12T09:08:02;27.00;42.40
7700;DHT22;3892;47.794;19.126;2023-08-12T09:10:32;27.10;41.50
7700;DHT22;3892;47.794;19.126;2023-08-12T09:13:02;27.10;41.70
7700;DHT22;3892;47.794;19.126;2023-08-12T09:15:30;27.20;41.60
7700;DHT22;3892;47.794;19.126;2023-08-12T09:17:58;27.30;41.60
7700;DHT22;3892;47.794;19.126;2023-08-12T09:20:26;27.40;41.20
7700;DHT22;3892;47.794;19.126;2023-08-12T09:22:56;27.50;41.40
7700;DHT22;3892;47.794;19.126;2023-08-12T09:25:26;27.60;41.90
7700;DHT22;3892;47.794;19.126;2023-08-12T09:27:58;27.60;41.10
7700;DHT22;3892;47.794;19.126;2023-08-12T09:30:29;27.70;40.40
7700;DHT22;3892;47.794;19.126;2023-08-12T09:32:59;27.80;40.30
7700;DHT22;3892;47.794;19.126;2023-08-12T09:35:33;27.90;40.60
7700;DHT22;3892;47.794;19.126;2023-08-12T09:38:03;27.90;40.00
7700;DHT22;3892;47.794;19.126;2023-08-12T09:40:32;28.00;39.40
7700;DHT22;3892;47.794;19.126;2023-08-12T09:43:02;28.00;39.40
7700;DHT22;3892;47.794;19.126;2023-08-12T09:45:31;28.20;39.50
7700;DHT22;3892;47.794;19.126;2023-08-12T09:48:00;28.30;40.40
7700;DHT22;3892;47.794;19.126;2023-08-12T09:50:28;28.30;39.60
7700;DHT22;3892;47.794;19.126;2023-08-12T09:52:56;28.40;39.40
7700;DHT22;3892;47.794;19.126;2023-08-12T09:55:25;28.40;38.70
7700;DHT22;3892;47.794;19.126;2023-08-12T09:57:54;28.40;38.40
7700;DHT22;3892;47.794;19.126;2023-08-12T10:00:25;28.50;39.00
7700;DHT22;3892;47.794;19.126;2023-08-12T10:02:53;28.60;38.80
7700;DHT22;3892;47.794;19.126;2023-08-12T10:05:24;28.70;39.20
7700;DHT22;3892;47.794;19.126;2023-08-12T10:07:53;28.80;37.80
7700;DHT22;3892;47.794;19.126;2023-08-12T10:10:21;28.80;37.80
7700;DHT22;3892;47.794;19.126;2023-08-12T10:12:50;28.90;38.10
7700;DHT22;3892;47.794;19.126;2023-08-12T10:15:19;28.90;37.70
7700;DHT22;3892;47.794;19.126;2023-08-12T10:17:51;29.00;38.30
7700;DHT22;3892;47.794;19.126;2023-08-12T10:20:21;29.00;37.70
7700;DHT22;3892;47.794;19.126;2023-08-12T10:22:51;29.00;37.00
7700;DHT22;3892;47.794;19.126;2023-08-12T10:25:19;29.10;36.80
7700;DHT22;3892;47.794;19.126;2023-08-12T10:27:49;29.10;37.10
7700;DHT22;3892;47.794;19.126;2023-08-12T10:30:19;29.10;36.60
7700;DHT22;3892;47.794;19.126;2023-08-12T10:32:49;29.20;36.90
7700;DHT22;3892;47.794;19.126;2023-08-12T10:35:17;29.30;36.70
7700;DHT22;3892;47.794;19.126;2023-08-12T10:37:49;29.30;35.70
7700;DHT22;3892;47.794;19.126;2023-08-12T10:40:22;29.30;36.40
7700;DHT22;3892;47.794;19.126;2023-08-12T10:42:50;29.40;36.20
7700;DHT22;3892;47.794;19.126;2023-08-12T10:45:19;29.60;35.50
7700;DHT22;3892;47.794;19.126;2023-08-12T10:48:10;29.60;34.50
7700;DHT22;3892;47.794;19.126;2023-08-12T10:50:44;29.70;35.00
7700;DHT22;3892;47.794;19.126;2023-08-12T10:53:23;29.80;34.80
7700;DHT22;3892;47.794;19.126;2023-08-12T10:55:55;29.80;35.30
7700;DHT22;3892;47.794;19.126;2023-08-12T10:58:27;29.90;33.50
7700;DHT22;3892;47.794;19.126;2023-08-12T11:00:56;30.00;33.80
7700;DHT22;3892;47.794;19.126;2023-08-12T11:03:27;30.00;33.50
7700;DHT22;3892;47.794;19.126;2023-08-12T11:06:00;30.00;32.30
7700;DHT22;3892;47.794;19.126;2023-08-12T11:08:29;30.10;34.30
7700;DHT22;3892;47.794;19.126;2023-08-12T11:10:57;30.20;32.70
7700;DHT22;3892;47.794;19.126;2023-08-12T11:13:29;30.30;32.70
7700;DHT22;3892;47.794;19.126;2023-08-12T11:16:07;30.40;33.50
7700;DHT22;3892;47.794;19.126;2023-08-12T11:18:37;30.60;33.10
7700;DHT22;3892;47.794;19.126;2023-08-12T11:21:05;30.70;32.10
7700;DHT22;3892;47.794;19.126;2023-08-12T11:23:34;30.70;31.40
7700;DHT22;3892;47.794;19.126;2023-08-12T11:26:03;30.90;32.30
7700;DHT22;3892;47.794;19.126;2023-08-12T11:28:31;30.90;32.60
7700;DHT22;3892;47.794;19.126;2023-08-12T11:30:59;31.10;33.20
7700;DHT22;3892;47.794;19.126;2023-08-12T11:33:28;31.10;33.30
7700;DHT22;3892;47.794;19.126;2023-08-12T11:35:59;31.20;33.10
7700;DHT22;3892;47.794;19.126;2023-08-12T11:38:28;31.30;32.60
7700;DHT22;3892;47.794;19.126;2023-08-12T11:40:56;31.30;32.20
7700;DHT22;3892;47.794;19.126;2023-08-12T11:43:24;31.30;30.80
7700;DHT22;3892;47.794;19.126;2023-08-12T11:45:55;31.40;32.00
7700;DHT22;3892;47.794;19.126;2023-08-12T11:48:23;31.50;31.90
7700;DHT22;3892;47.794;19.126;2023-08-12T11:50:51;31.50;31.10
7700;DHT22;3892;47.794;19.126;2023-08-12T11:53:21;31.50;31.00
7700;DHT22;3892;47.794;19.126;2023-08-12T11:55:49;31.50;32.00
7700;DHT22;3892;47.794;19.126;2023-08-12T11:58:17;31.60;31.60
7700;DHT22;3892;47.794;19.126;2023-08-12T12:00:47;31.60;31.50
7700;DHT22;3892;47.794;19.126;2023-08-12T12:03:16;31.70;31.00
7700;DHT22;3892;47.794;19.126;2023-08-12T12:05:46;31.70;30.20
7700;DHT22;3892;47.794;19.126;2023-08-12T12:08:14;31.70;31.00
7700;DHT22;3892;47.794;19.126;2023-08-12T12:10:43;31.80;32.20
7700;DHT22;3892;47.794;19.126;2023-08-12T12:13:12;31.90;32.40
7700;DHT22;3892;47.794;19.126;2023-08-12T12:15:41;32.00;32.20
7700;DHT22;3892;47.794;19.126;2023-08-12T12:18:11;32.10;32.20
7700;DHT22;3892;47.794;19.126;2023-08-12T12:20:53;32.20;32.30
7700;DHT22;3892;47.794;19.126;2023-08-12T12:23:22;32.20;32.30
7700;DHT22;3892;47.794;19.126;2023-08-12T12:25:58;32.30;32.90
7700;DHT22;3892;47.794;19.126;2023-08-12T12:28:27;32.20;32.50
7700;DHT22;3892;47.794;19.126;2023-08-12T12:30:55;32.30;32.20
7700;DHT22;3892;47.794;19.126;2023-08-12T12:33:23;32.20;32.90
7700;DHT22;3892;47.794;19.126;2023-08-12T12:35:51;32.30;32.80
7700;DHT22;3892;47.794;19.126;2023-08-12T12:38:22;32.30;32.60
7700;DHT22;3892;47.794;19.126;2023-08-12T12:40:50;32.40;32.50
7700;DHT22;3892;47.794;19.126;2023-08-12T12:43:20;32.40;33.10
7700;DHT22;3892;47.794;19.126;2023-08-12T12:45:48;32.60;33.30
7700;DHT22;3892;47.794;19.126;2023-08-12T12:48:16;32.60;32.70
7700;DHT22;3892;47.794;19.126;2023-08-12T12:50:44;32.60;31.70
7700;DHT22;3892;47.794;19.126;2023-08-12T12:53:12;32.60;32.20
7700;DHT22;3892;47.794;19.126;2023-08-12T12:55:40;32.70;32.40
7700;DHT22;3892;47.794;19.126;2023-08-12T12:58:09;32.80;32.20
7700;DHT22;3892;47.794;19.126;2023-08-12T13:00:39;32.80;31.50
7700;DHT22;3892;47.794;19.126;2023-08-12T13:03:07;32.80;31.50
7700;DHT22;3892;47.794;19.126;2023-08-12T13:05:35;32.80;31.50
7700;DHT22;3892;47.794;19.126;2023-08-12T13:08:04;32.80;32.40
7700;DHT22;3892;47.794;19.126;2023-08-12T13:10:32;32.90;32.20
7700;DHT22;3892;47.794;19.126;2023-08-12T13:13:01;32.90;32.20
7700;DHT22;3892;47.794;19.126;2023-08-12T13:15:30;32.90;32.00
7700;DHT22;3892;47.794;19.126;2023-08-12T13:18:00;33.10;32.20
7700;DHT22;3892;47.794;19.126;2023-08-12T13:20:28;33.10;32.20
7700;DHT22;3892;47.794;19.126;2023-08-12T13:22:56;33.20;32.90
7700;DHT22;3892;47.794;19.126;2023-08-12T13:25:25;33.30;31.70
7700;DHT22;3892;47.794;19.126;2023-08-12T13:27:53;33.30;32.60
7700;DHT22;3892;47.794;19.126;2023-08-12T13:30:21;33.40;32.20
7700;DHT22;3892;47.794;19.126;2023-08-12T13:32:50;33.30;31.60
7700;DHT22;3892;47.794;19.126;2023-08-12T13:35:20;33.20;32.10
7700;DHT22;3892;47.794;19.126;2023-08-12T13:37:49;33.30;32.90
7700;DHT22;3892;47.794;19.126;2023-08-12T13:40:17;33.40;33.10
7700;DHT22;3892;47.794;19.126;2023-08-12T13:42:46;33.40;33.40
7700;DHT22;3892;47.794;19.126;2023-08-12T13:45:14;33.40;33.30
7700;DHT22;3892;47.794;19.126;2023-08-12T13:47:42;33.40;32.00
7700;DHT22;3892;47.794;19.126;2023-08-12T13:50:10;33.40;31.70
7700;DHT22;3892;47.794;19.126;2023-08-12T13:52:41;33.40;32.50
7700;DHT22;3892;47.794;19.126;2023-08-12T13:55:09;33.40;32.30
7700;DHT22;3892;47.794;19.126;2023-08-12T13:57:37;33.30;31.60
7700;DHT22;3892;47.794;19.126;2023-08-12T14:00:06;33.40;32.50
7700;DHT22;3892;47.794;19.126;2023-08-12T14:02:36;33.40;32.40
7700;DHT22;3892;47.794;19.126;2023-08-12T14:05:05;33.40;32.40
7700;DHT22;3892;47.794;19.126;2023-08-12T14:07:34;33.30;32.30
7700;DHT22;3892;47.794;19.126;2023-08-12T14:10:04;33.20;32.30
7700;DHT22;3892;47.794;19.126;2023-08-12T14:12:32;33.30;33.30
7700;DHT22;3892;47.794;19.126;2023-08-12T14:15:00;33.20;32.10
7700;DHT22;3892;47.794;19.126;2023-08-12T14:17:28;33.40;33.40
7700;DHT22;3892;47.794;19.126;2023-08-12T14:19:56;33.40;32.40
7700;DHT22;3892;47.794;19.126;2023-08-12T14:22:26;33.30;32.20
7700;DHT22;3892;47.794;19.126;2023-08-12T14:24:54;33.30;33.10
7700;DHT22;3892;47.794;19.126;2023-08-12T14:27:28;33.40;33.40
7700;DHT22;3892;47.794;19.126;2023-08-12T14:29:56;33.50;33.60
7700;DHT22;3892;47.794;19.126;2023-08-12T14:32:24;33.50;32.90
7700;DHT22;3892;47.794;19.126;2023-08-12T14:34:53;33.60;32.90
7700;DHT22;3892;47.794;19.126;2023-08-12T14:37:21;33.70;33.40
7700;DHT22;3892;47.794;19.126;2023-08-12T14:39:49;33.80;33.80
7700;DHT22;3892;47.794;19.126;2023-08-12T14:42:17;33.80;33.20
7700;DHT22;3892;47.794;19.126;2023-08-12T14:44:46;33.90;33.80
7700;DHT22;3892;47.794;19.126;2023-08-12T14:47:14;33.90;32.80
7700;DHT22;3892;47.794;19.126;2023-08-12T14:49:42;34.00;33.00
7700;DHT22;3892;47.794;19.126;2023-08-12T14:52:16;33.90;32.20
7700;DHT22;3892;47.794;19.126;2023-08-12T14:54:46;34.00;33.40
7700;DHT22;3892;47.794;19.126;2023-08-12T14:57:14;34.10;34.10
7700;DHT22;3892;47.794;19.126;2023-08-12T14:59:42;34.10;33.50
7700;DHT22;3892;47.794;19.126;2023-08-12T15:02:12;34.20;33.30
7700;DHT22;3892;47.794;19.126;2023-08-12T15:04:40;34.20;32.10
7700;DHT22;3892;47.794;19.126;2023-08-12T15:07:08;34.10;31.80
7700;DHT22;3892;47.794;19.126;2023-08-12T15:09:36;33.90;31.50
7700;DHT22;3892;47.794;19.126;2023-08-12T15:12:04;33.90;32.70
7700;DHT22;3892;47.794;19.126;2023-08-12T15:14:33;33.80;33.30
7700;DHT22;3892;47.794;19.126;2023-08-12T15:17:01;33.90;33.50
7700;DHT22;3892;47.794;19.126;2023-08-12T15:19:30;33.90;33.90
7700;DHT22;3892;47.794;19.126;2023-08-12T15:21:58;34.00;34.40
7700;DHT22;3892;47.794;19.126;2023-08-12T15:24:27;34.00;34.40
7700;DHT22;3892;47.794;19.126;2023-08-12T15:26:55;34.00;33.30
7700;DHT22;3892;47.794;19.126;2023-08-12T15:29:23;33.90;33.60
7700;DHT22;3892;47.794;19.126;2023-08-12T15:31:51;34.00;34.40
7700;DHT22;3892;47.794;19.126;2023-08-12T15:34:19;33.90;33.90
7700;DHT22;3892;47.794;19.126;2023-08-12T15:36:50;34.00;34.10
7700;DHT22;3892;47.794;19.126;2023-08-12T15:39:18;34.00;32.80
7700;DHT22;3892;47.794;19.126;2023-08-12T15:41:48;33.90;33.30
7700;DHT22;3892;47.794;19.126;2023-08-12T15:44:16;33.90;33.20
7700;DHT22;3892;47.794;19.126;2023-08-12T15:46:44;33.90;33.40
7700;DHT22;3892;47.794;19.126;2023-08-12T15:49:12;34.00;33.40
7700;DHT22;3892;47.794;19.126;2023-08-12T15:51:40;33.90;33.20
7700;DHT22;3892;47.794;19.126;2023-08-12T15:54:10;34.00;33.40
7700;DHT22;3892;47.794;19.126;2023-08-12T15:56:38;34.00;33.80